Main page
METAR-TAF:

METAR-TAF

Airports :

Le Havre – Octeville Airport

Le Havre, France

latitude: 49-31N, longitude: 000-04E, elevation: 100 m

Current weather observation

The report was made 25 minutes ago, at 21:00 UTC
Wind 6 kt from the East/Northeast
Temperature 13°C
Humidity 82%
Pressure 1018 hPa
Visibility: 6000 m

METAR: LFOH 202100Z AUTO 06006KT 6000 NSC 13/10 Q1018

Time: 23:25 (21:25 UTC)

Forecast

The report was made 7 hours and 15 minutes ago, at 14:10 UTC
Forecast valid from 20 at 14 UTC to 21 at 12 UTC
Wind 8 kt from the East/Northeast
Visibility: 8000 m
Temporary
from 20 at 14 UTC to 20 at 18 UTC
Visibility: 4000 m
mist
Becoming
from 21 at 00 UTC to 21 at 03 UTC
Visibility: 4000 m
mist
Probability 40%
from 21 at 03 UTC to 21 at 07 UTC
Visibility: 0300 m
fog
Becoming
from 21 at 07 UTC to 21 at 09 UTC
Visibility 10 km or more

TAF: LFOH 201410Z 2014/2112 06008KT 8000 NSC TEMPO 2014/2018 4000 BR BECMG 2100/2103 4000 BR PROB40 2103/2107 0300 FG VV/// BECMG 2107/2109 9999 NSW

Weather observations and forecasts of more than 4000 airports (METAR and TAF reports).

The available stations are represented by yellow and red dots on the map.

Hover mouse over dot to see the name of the station.

Then click to see weather observations and forecasts.

To change the map : click on the green buttons with a black cross to zoom in, on the green button with a dash to zoom out, or on the green arrows for adjacent maps.


METAR-TAF: